Weather at Heaven's Landing Airstrip

Public forecast

Using degrees Fahrenheit for public forecast. Weather courtesy of forecast.io.

Closest aviation weather report (METAR) to Heaven's Landing Airstrip

Closest report is Grant County Airport, 11.5 nm (21.3 km) SSW. Retrieved UTC (0 seconds ago):

Closest aviation forecast (TAF) to Heaven's Landing Airstrip

Forecast is more than 6 hours old.

Closest forecast is Elkins-Randolph Co-Jennings Randolph Field, 40.6 nm (75.2 km) WSW. Retrieved 2021/03/08 06:27 UTC (7 hours ago):

TAF KEKN 080525Z 0806/0906 00000KT P6SM FEW250 FM081700 27009KT P6SM SKC FM090500 VRB03KT P6SM FEW150